Time,TemperatureF,DewpointF,PressureIn,WindDirection,WindDirectionDegrees,WindSpeedMPH,WindSpeedGustMPH,Humidity,HourlyPrecipIn,Conditions,Clouds,dailyrainin,SolarRadiationWatts/m^2,SoftwareType,DateUTC
2013-05-17 00:21:00,43.0,36.0,-100.00,WSW,240,6.0,10.0,77,0.00,,,0.61,0.000000,,2013-05-17 06:21:00,
2013-05-17 00:32:00,43.0,36.0,-100.00,WSW,240,6.0,10.0,77,0.00,,,0.61,0.000000,,2013-05-17 06:32:00,
2013-05-17 00:42:00,43.0,36.0,-100.00,WSW,240,6.0,10.0,77,0.00,,,0.61,0.000000,,2013-05-17 06:42:00,
2013-05-17 00:51:00,43.0,36.0,-100.00,WSW,240,6.0,10.0,77,0.00,,,0.61,0.000000,,2013-05-17 06:51:00,
2013-05-17 00:52:00,44.0,33.0,-100.00,WNW,297,5.0,7.0,66,0.00,,,0.61,0.000000,,2013-05-17 06:52:00,
2013-05-17 01:11:00,44.0,33.0,-100.00,WNW,297,5.0,7.0,66,0.00,,,0.61,0.000000,,2013-05-17 07:11:00,
2013-05-17 01:21:00,44.0,33.0,-100.00,WNW,297,5.0,7.0,66,0.00,,,0.61,0.000000,,2013-05-17 07:21:00,
2013-05-17 01:32:00,44.0,33.0,-100.00,WNW,297,5.0,7.0,66,0.00,,,0.61,0.000000,,2013-05-17 07:32:00,
2013-05-17 01:43:00,44.0,33.0,-100.00,WNW,297,5.0,7.0,66,0.00,,,0.61,0.000000,,2013-05-17 07:43:00,
2013-05-17 02:12:00,44.0,33.0,-100.00,South,174,2.0,8.0,64,0.00,,,0.61,0.000000,,2013-05-17 08:12:00,
2013-05-17 02:22:00,44.0,33.0,-100.00,South,174,2.0,8.0,64,0.00,,,0.61,0.000000,,2013-05-17 08:22:00,
2013-05-17 02:33:00,44.0,33.0,-100.00,South,174,2.0,8.0,64,0.00,,,0.61,0.000000,,2013-05-17 08:33:00,
2013-05-17 02:42:00,44.0,33.0,-100.00,South,174,2.0,8.0,64,0.00,,,0.61,0.000000,,2013-05-17 08:42:00,
2013-05-17 02:51:00,44.0,33.0,-100.00,South,174,2.0,8.0,64,0.00,,,0.61,0.000000,,2013-05-17 08:51:00,
2013-05-17 02:52:00,43.0,34.0,-100.00,WNW,285,3.0,10.0,71,0.00,,,0.61,0.000000,,2013-05-17 08:52:00,
2013-05-17 03:12:00,43.0,34.0,-100.00,WNW,285,3.0,10.0,71,0.00,,,0.61,0.000000,,2013-05-17 09:12:00,
2013-05-17 03:22:00,43.0,34.0,-100.00,WNW,285,3.0,10.0,71,0.00,,,0.61,0.000000,,2013-05-17 09:22:00,
2013-05-17 03:33:00,43.0,34.0,-100.00,WNW,285,3.0,10.0,71,0.00,,,0.61,0.000000,,2013-05-17 09:33:00,
2013-05-17 03:42:00,43.0,34.0,-100.00,WNW,285,3.0,10.0,71,0.00,,,0.61,0.000000,,2013-05-17 09:42:00,
2013-05-17 03:52:00,42.0,37.0,-100.00,NNW,336,13.0,16.0,81,0.00,,,0.61,0.000000,,2013-05-17 09:52:00,
2013-05-17 04:12:00,42.0,37.0,-100.00,NNW,336,13.0,16.0,81,0.00,,,0.61,0.000000,,2013-05-17 10:12:00,
2013-05-17 04:23:00,42.0,37.0,-100.00,NNW,336,13.0,16.0,81,0.00,,,0.61,0.000000,,2013-05-17 10:23:00,
2013-05-17 04:32:00,42.0,37.0,-100.00,NNW,336,13.0,16.0,81,0.00,,,0.61,0.000000,,2013-05-17 10:32:00,
2013-05-17 04:42:00,42.0,37.0,-100.00,NNW,336,13.0,16.0,81,0.00,,,0.61,0.000000,,2013-05-17 10:42:00,
2013-05-17 04:52:00,41.0,36.0,-100.00,WSW,253,14.0,21.0,82,0.00,,,0.61,0.000000,,2013-05-17 10:52:00,
2013-05-17 05:22:00,41.0,36.0,-100.00,WSW,253,14.0,21.0,82,0.00,,,0.61,0.000000,,2013-05-17 11:22:00,
2013-05-17 05:34:00,41.0,36.0,-100.00,WSW,253,14.0,21.0,82,0.00,,,0.61,0.000000,,2013-05-17 11:34:00,
2013-05-17 05:42:00,41.0,36.0,-100.00,WSW,253,14.0,21.0,82,0.00,,,0.61,0.000000,,2013-05-17 11:42:00,
2013-05-17 05:52:00,41.0,36.0,-100.00,SE,146,10.0,16.0,82,0.00,,,0.61,0.000000,,2013-05-17 11:52:00,
2013-05-17 06:23:00,41.0,36.0,-100.00,SE,146,10.0,16.0,82,0.00,,,0.61,0.000000,,2013-05-17 12:23:00,
2013-05-17 06:32:00,41.0,36.0,-100.00,SE,146,10.0,16.0,82,0.00,,,0.61,0.000000,,2013-05-17 12:32:00,
2013-05-17 06:43:00,41.0,36.0,-100.00,SE,146,10.0,16.0,82,0.00,,,0.61,0.000000,,2013-05-17 12:43:00,
2013-05-17 06:52:00,41.0,37.0,-100.00,NE,39,9.0,11.0,87,0.00,,,0.61,51.000000,,2013-05-17 12:52:00,
2013-05-17 07:12:00,41.0,37.0,-100.00,NE,39,9.0,11.0,87,0.00,,,0.61,51.000000,,2013-05-17 13:12:00,
2013-05-17 07:23:00,41.0,37.0,-100.00,NE,39,9.0,11.0,87,0.00,,,0.61,51.000000,,2013-05-17 13:23:00,
2013-05-17 07:33:00,41.0,37.0,-100.00,NE,39,9.0,11.0,87,0.00,,,0.61,51.000000,,2013-05-17 13:33:00,
2013-05-17 07:42:00,41.0,37.0,-100.00,NE,39,9.0,11.0,87,0.00,,,0.61,51.000000,,2013-05-17 13:42:00,
2013-05-17 07:52:00,43.0,39.0,-100.00,ENE,62,9.0,12.0,86,0.00,,,0.61,148.000000,,2013-05-17 13:52:00,
2013-05-17 08:22:00,43.0,39.0,-100.00,ENE,62,9.0,12.0,86,0.00,,,0.61,148.000000,,2013-05-17 14:22:00,
2013-05-17 08:34:00,43.0,39.0,-100.00,ENE,62,9.0,12.0,86,0.00,,,0.61,148.000000,,2013-05-17 14:34:00,
2013-05-17 08:42:00,43.0,39.0,-100.00,ENE,62,9.0,12.0,86,0.00,,,0.61,148.000000,,2013-05-17 14:42:00,
2013-05-17 08:52:00,46.0,40.0,-100.00,ESE,103,7.0,13.0,79,0.00,,,0.61,374.000000,,2013-05-17 14:52:00,
2013-05-17 09:25:00,46.0,40.0,-100.00,ESE,103,7.0,13.0,79,0.00,,,0.61,374.000000,,2013-05-17 15:25:00,
2013-05-17 09:37:00,46.0,40.0,-100.00,ESE,103,7.0,13.0,79,0.00,,,0.61,374.000000,,2013-05-17 15:37:00,
2013-05-17 09:47:00,46.0,40.0,-100.00,ESE,103,7.0,13.0,79,0.00,,,0.61,374.000000,,2013-05-17 15:47:00,
2013-05-17 09:52:00,46.0,40.0,-100.00,ESE,113,7.0,11.0,80,0.00,,,0.60,432.000000,,2013-05-17 15:52:00,
2013-05-17 10:26:00,46.0,40.0,-100.00,ESE,113,7.0,11.0,80,0.00,,,0.60,432.000000,,2013-05-17 16:26:00,
2013-05-17 10:37:00,46.0,40.0,-100.00,ESE,113,7.0,11.0,80,0.00,,,0.60,432.000000,,2013-05-17 16:37:00,
2013-05-17 10:49:00,46.0,40.0,-100.00,ESE,113,7.0,11.0,80,0.00,,,0.60,432.000000,,2013-05-17 16:49:00,
2013-05-17 10:52:00,46.0,41.0,-100.00,ESE,104,8.0,12.0,83,0.00,,,0.45,379.000000,,2013-05-17 16:52:00,
2013-05-17 11:18:00,46.0,41.0,-100.00,ESE,104,8.0,12.0,83,0.00,,,0.45,379.000000,,2013-05-17 17:18:00,
2013-05-17 11:29:00,46.0,41.0,-100.00,ESE,104,8.0,12.0,83,0.00,,,0.45,379.000000,,2013-05-17 17:29:00,
2013-05-17 11:40:00,46.0,-99.9,-100.00,ESE,104,8.0,12.0,83,0.00,,,0.45,379.000000,,2013-05-17 17:40:00,
2013-05-17 11:48:00,46.0,41.0,-100.00,ESE,104,8.0,12.0,83,0.00,,,0.45,379.000000,,2013-05-17 17:48:00,
2013-05-17 11:52:00,46.0,41.0,-100.00,SSW,198,5.0,10.0,82,0.00,,,0.40,243.000000,,2013-05-17 17:52:00,
2013-05-17 12:20:00,46.0,41.0,-100.00,SSW,198,5.0,10.0,82,0.00,,,0.40,243.000000,,2013-05-17 18:20:00,
2013-05-17 12:30:00,46.0,41.0,-100.00,SSW,198,5.0,10.0,82,0.00,,,0.40,243.000000,,2013-05-17 18:30:00,
2013-05-17 12:40:00,46.0,-99.9,-100.00,SSW,198,5.0,10.0,82,0.00,,,0.40,243.000000,,2013-05-17 18:40:00,
2013-05-17 12:50:00,-999.0,-99.9,-100.00,SSW,198,5.0,10.0,82,0.00,,,0.40,243.000000,,2013-05-17 18:50:00,
2013-05-17 12:52:00,46.0,-99.9,-100.00,SE,141,6.0,9.0,82,0.00,,,0.40,209.000000,,2013-05-17 18:52:00,
2013-05-17 13:20:00,46.0,41.0,-100.00,SE,141,6.0,9.0,82,0.00,,,0.40,209.000000,,2013-05-17 19:20:00,
2013-05-17 13:30:00,46.0,41.0,-100.00,SE,141,6.0,9.0,82,0.00,,,0.40,209.000000,,2013-05-17 19:30:00,
2013-05-17 13:40:00,46.0,41.0,-100.00,SE,141,6.0,9.0,82,0.00,,,0.40,209.000000,,2013-05-17 19:40:00,
2013-05-17 13:50:00,46.0,41.0,-100.00,SE,141,6.0,9.0,82,0.00,,,0.40,209.000000,,2013-05-17 19:50:00,
2013-05-17 13:52:00,47.0,40.0,-100.00,SE,126,5.0,9.0,76,0.00,,,0.40,282.000000,,2013-05-17 19:52:00,
2013-05-17 14:20:00,47.0,40.0,-100.00,SE,126,5.0,9.0,76,0.00,,,0.40,282.000000,,2013-05-17 20:20:00,
2013-05-17 14:30:00,47.0,40.0,-100.00,SE,126,5.0,9.0,76,0.00,,,0.40,282.000000,,2013-05-17 20:30:00,
2013-05-17 14:40:00,47.0,40.0,-100.00,SE,126,5.0,9.0,76,0.00,,,0.40,282.000000,,2013-05-17 20:40:00,
2013-05-17 14:49:00,47.0,40.0,-100.00,SE,126,5.0,9.0,76,0.00,,,0.40,282.000000,,2013-05-17 20:49:00,
2013-05-17 14:52:00,47.0,42.0,-100.00,ESE,106,6.0,12.0,84,0.00,,,0.40,396.000000,,2013-05-17 20:52:00,
2013-05-17 15:26:00,47.0,42.0,-100.00,ESE,106,6.0,12.0,84,0.00,,,0.40,396.000000,,2013-05-17 21:26:00,
2013-05-17 15:39:00,47.0,42.0,-100.00,ESE,106,6.0,12.0,84,0.00,,,0.40,396.000000,,2013-05-17 21:39:00,
2013-05-17 15:49:00,47.0,42.0,-100.00,ESE,106,6.0,12.0,84,0.00,,,0.40,396.000000,,2013-05-17 21:49:00,
2013-05-17 15:52:00,47.0,44.0,-100.00,ESE,104,5.0,10.0,90,0.00,,,0.30,188.000000,,2013-05-17 21:52:00,
2013-05-17 16:28:00,47.0,44.0,-100.00,ESE,104,5.0,10.0,90,0.00,,,0.30,188.000000,,2013-05-17 22:28:00,
2013-05-17 16:38:00,47.0,44.0,-100.00,ESE,104,5.0,10.0,90,0.00,,,0.30,188.000000,,2013-05-17 22:38:00,
2013-05-17 16:47:00,47.0,44.0,-100.00,ESE,104,5.0,10.0,90,0.00,,,0.30,188.000000,,2013-05-17 22:47:00,
2013-05-17 16:52:00,44.0,42.0,-100.00,ENE,77,5.0,10.0,94,0.01,,,0.01,170.000000,,2013-05-17 22:52:00,
2013-05-17 17:13:00,44.0,42.0,-100.00,ENE,77,5.0,10.0,94,0.01,,,0.01,170.000000,,2013-05-17 23:13:00,
2013-05-17 17:23:00,44.0,42.0,-100.00,ENE,77,5.0,10.0,94,0.01,,,0.01,170.000000,,2013-05-17 23:23:00,
2013-05-17 17:37:00,44.0,42.0,-100.00,ENE,77,5.0,10.0,94,0.01,,,0.01,170.000000,,2013-05-17 23:37:00,
2013-05-17 17:47:00,44.0,42.0,-100.00,ENE,77,5.0,10.0,94,0.01,,,0.01,170.000000,,2013-05-17 23:47:00,
2013-05-17 17:52:00,44.0,39.0,-100.00,NE,45,6.0,11.0,83,0.02,,,0.03,182.000000,,2013-05-17 23:52:00,
2013-05-17 18:14:00,44.0,39.0,-100.00,NE,45,6.0,11.0,83,0.02,,,0.03,182.000000,,2013-05-18 00:14:00,
2013-05-17 18:21:00,44.0,39.0,-100.00,NE,45,6.0,11.0,83,0.02,,,0.03,182.000000,,2013-05-18 00:21:00,
2013-05-17 18:33:00,44.0,39.0,-100.00,NE,45,6.0,11.0,83,0.02,,,0.03,182.000000,,2013-05-18 00:33:00,
2013-05-17 18:44:00,44.0,39.0,-100.00,NE,45,6.0,11.0,83,0.02,,,0.03,182.000000,,2013-05-18 00:44:00,
2013-05-17 18:52:00,45.0,43.0,-100.00,East,80,7.0,10.0,92,0.00,,,0.03,119.000000,,2013-05-18 00:52:00,
2013-05-17 19:13:00,45.0,43.0,-100.00,East,80,7.0,10.0,92,0.00,,,0.03,119.000000,,2013-05-18 01:13:00,
2013-05-17 19:24:00,45.0,43.0,-100.00,East,80,7.0,10.0,92,0.00,,,0.03,119.000000,,2013-05-18 01:24:00,
2013-05-17 19:31:00,45.0,43.0,-100.00,East,80,7.0,10.0,92,0.00,,,0.03,119.000000,,2013-05-18 01:31:00,
2013-05-17 19:42:00,45.0,43.0,-100.00,East,80,7.0,10.0,92,0.00,,,0.03,119.000000,,2013-05-18 01:42:00,
2013-05-17 19:52:00,43.0,43.0,-100.00,East,80,7.0,11.0,99,0.01,,,0.04,23.000000,,2013-05-18 01:52:00,
2013-05-17 20:22:00,43.0,43.0,-100.00,East,80,7.0,11.0,99,0.01,,,0.04,23.000000,,2013-05-18 02:22:00,
2013-05-17 20:31:00,43.0,43.0,-100.00,East,80,7.0,11.0,99,0.01,,,0.04,23.000000,,2013-05-18 02:31:00,
2013-05-17 20:42:00,43.0,43.0,-100.00,East,80,7.0,11.0,99,0.01,,,0.04,23.000000,,2013-05-18 02:42:00,
2013-05-17 20:52:00,45.0,39.0,-100.00,NNE,31,6.0,12.0,78,0.00,,,0.04,6.000000,,2013-05-18 02:52:00,
2013-05-17 21:22:00,45.0,39.0,-100.00,NNE,31,6.0,12.0,78,0.00,,,0.04,6.000000,,2013-05-18 03:22:00,
2013-05-17 21:32:00,45.0,39.0,-100.00,NNE,31,6.0,12.0,78,0.00,,,0.04,6.000000,,2013-05-18 03:32:00,
2013-05-17 21:43:00,45.0,39.0,-100.00,NNE,31,6.0,12.0,78,0.00,,,0.04,6.000000,,2013-05-18 03:43:00,
2013-05-17 21:52:00,43.0,43.0,-100.00,SW,226,4.0,9.0,99,0.00,,,0.04,0.000000,,2013-05-18 03:52:00,
2013-05-17 22:12:00,43.0,43.0,-100.00,SW,226,4.0,9.0,99,0.00,,,0.04,0.000000,,2013-05-18 04:12:00,
2013-05-17 22:23:00,43.0,43.0,-100.00,SW,226,4.0,9.0,99,0.00,,,0.04,0.000000,,2013-05-18 04:23:00,
2013-05-17 22:32:00,43.0,43.0,-100.00,SW,226,4.0,9.0,99,0.00,,,0.04,0.000000,,2013-05-18 04:32:00,
2013-05-17 22:42:00,43.0,43.0,-100.00,SW,226,4.0,9.0,99,0.00,,,0.04,0.000000,,2013-05-18 04:42:00,
2013-05-17 23:22:00,42.0,42.0,-100.00,NNE,20,3.0,7.0,99,0.00,,,0.04,0.000000,,2013-05-18 05:22:00,
2013-05-17 23:31:00,42.0,42.0,-100.00,NNE,20,3.0,7.0,99,0.00,,,0.04,0.000000,,2013-05-18 05:31:00,
2013-05-17 23:42:00,42.0,42.0,-100.00,NNE,20,3.0,7.0,99,0.00,,,0.04,0.000000,,2013-05-18 05:42:00,
2013-05-17 23:51:00,42.0,42.0,-100.00,NNE,20,3.0,7.0,99,0.00,,,0.04,0.000000,,2013-05-18 05:51:00,